Time;durP1;ratioP1;P1;durP2;ratioP2;P2;SDS_P1;SDS_P2;PMS_P1;PMS_P2;Temp;Humidity;BMP_temperature;BMP_pressure;BME280_temperature;BME280_humidity;BME280_pressure;Samples;Min_cycle;Max_cycle;Signal;HPM_P1;HPM_P2
2023/01/27 00:09:37;;;;;;;1999.90;999.90;;;3.20;99.90;;;;;;6742346;88;20192;-76
2023/01/27 00:19:37;;;;;;;1999.90;999.90;;;3.20;99.90;;;;;;6740181;88;20681;-75
2023/01/27 00:29:39;;;;;;;1999.90;999.90;;;3.20;99.90;;;;;;6739870;88;20659;-75
2023/01/27 00:39:40;;;;;;;1999.90;999.90;;;3.20;99.90;;;;;;6743193;88;20216;-76
2023/01/27 00:49:40;;;;;;;1999.90;999.90;;;3.10;99.90;;;;;;6740013;88;20260;-75
2023/01/27 00:59:41;;;;;;;1999.90;999.90;;;3.00;99.90;;;;;;6743832;88;20803;-76
2023/01/27 01:09:41;;;;;;;1999.90;999.90;;;3.00;99.90;;;;;;6743531;88;21048;-75
2023/01/27 01:19:42;;;;;;;1999.90;999.90;;;3.10;99.90;;;;;;6734893;88;20210;-75
2023/01/27 01:29:42;;;;;;;1999.90;999.90;;;3.10;99.90;;;;;;6743436;88;20322;-75
2023/01/27 01:39:43;;;;;;;1999.90;999.90;;;3.00;99.90;;;;;;6745951;88;20231;-76
2023/01/27 01:49:45;;;;;;;1999.90;999.90;;;3.10;99.90;;;;;;6742812;88;20226;-76
2023/01/27 01:59:52;;;;;;;1999.90;999.90;;;3.00;99.90;;;;;;6745628;88;20566;-75
2023/01/27 02:09:55;;;;;;;1999.90;999.90;;;2.90;99.90;;;;;;6742735;88;20197;-75
2023/01/27 02:20:18;;;;;;;1999.90;999.90;;;3.10;99.90;;;;;;6748120;88;20213;-75
2023/01/27 02:30:19;;;;;;;1999.90;999.90;;;3.00;99.90;;;;;;6745618;88;20204;-75
2023/01/27 02:40:21;;;;;;;1999.90;999.90;;;3.10;99.90;;;;;;6740096;88;20604;-75
2023/01/27 02:50:22;;;;;;;1999.90;999.90;;;3.10;99.90;;;;;;6743299;88;20872;-75
2023/01/27 03:00:23;;;;;;;1999.90;999.90;;;3.00;99.90;;;;;;6745688;88;20207;-75
2023/01/27 03:10:23;;;;;;;1999.90;999.90;;;3.00;99.90;;;;;;6741508;88;20290;-75
2023/01/27 03:20:24;;;;;;;1999.90;999.90;;;2.90;99.90;;;;;;6740803;88;20325;-74
2023/01/27 03:30:26;;;;;;;1999.90;999.90;;;2.90;99.90;;;;;;6743824;88;20209;-75
2023/01/27 03:50:52;;;;;;;1999.90;999.90;;;2.80;99.90;;;;;;6742223;88;20215;-76
2023/01/27 04:01:18;;;;;;;1999.90;999.90;;;2.90;99.90;;;;;;6731983;88;20213;-75
2023/01/27 04:21:39;;;;;;;1999.90;999.90;;;2.80;99.90;;;;;;6735469;88;20277;-77
2023/01/27 04:31:41;;;;;;;1999.90;999.90;;;2.70;99.90;;;;;;6744599;88;20282;-74
2023/01/27 04:41:42;;;;;;;1999.90;999.90;;;2.80;99.90;;;;;;6739732;88;20724;-76
2023/01/27 04:51:43;;;;;;;1999.90;999.90;;;2.80;99.90;;;;;;6740988;88;20198;-76
2023/01/27 05:01:43;;;;;;;1999.90;999.90;;;2.80;99.90;;;;;;6749928;88;20256;-77
2023/01/27 05:11:44;;;;;;;1999.90;999.90;;;2.80;99.90;;;;;;6750281;88;20201;-75
2023/01/27 05:21:45;;;;;;;1999.90;999.90;;;2.80;99.90;;;;;;6750898;88;20310;-76
2023/01/27 05:31:45;;;;;;;1999.90;999.90;;;2.80;99.90;;;;;;6755464;88;20219;-76
2023/01/27 05:41:46;;;;;;;1999.90;999.90;;;2.80;99.90;;;;;;6758260;88;20583;-77
2023/01/27 05:51:46;;;;;;;1999.90;999.90;;;2.80;99.90;;;;;;6759938;88;20244;-77
2023/01/27 06:01:47;;;;;;;1999.90;999.90;;;2.70;99.90;;;;;;6766789;88;20180;-77
2023/01/27 06:11:47;;;;;;;1999.90;999.90;;;2.70;99.90;;;;;;6756744;88;20209;-76
2023/01/27 06:21:48;;;;;;;1999.90;999.90;;;2.80;99.90;;;;;;6751469;88;20181;-77
2023/01/27 06:31:48;;;;;;;1999.90;999.90;;;2.70;99.90;;;;;;6754284;88;20213;-75
2023/01/27 06:41:49;;;;;;;1999.90;999.90;;;2.80;99.90;;;;;;6751293;88;20208;-77
2023/01/27 06:51:49;;;;;;;1999.90;999.90;;;2.80;99.90;;;;;;6746592;88;20277;-78
2023/01/27 07:01:50;;;;;;;1999.90;999.90;;;2.80;99.90;;;;;;6755286;88;20547;-79
2023/01/27 07:11:50;;;;;;;1999.90;999.90;;;2.80;99.90;;;;;;6756686;88;20220;-77
2023/01/27 07:21:51;;;;;;;1999.90;999.90;;;2.80;99.90;;;;;;6749707;88;20743;-77
2023/01/27 07:31:51;;;;;;;1999.90;999.90;;;2.90;99.90;;;;;;6750249;88;20205;-76
2023/01/27 07:41:52;;;;;;;1999.90;999.90;;;3.00;99.90;;;;;;6742651;88;20206;-75
2023/01/27 07:51:53;;;;;;;1999.90;999.90;;;3.00;99.90;;;;;;6742199;88;20486;-76
2023/01/27 08:01:53;;;;;;;1999.90;999.90;;;3.10;99.90;;;;;;6742712;88;20295;-76
2023/01/27 08:11:54;;;;;;;1999.90;999.90;;;3.20;99.90;;;;;;6751659;88;20617;-76
2023/01/27 08:21:54;;;;;;;1999.90;999.90;;;3.30;99.90;;;;;;6758808;88;20178;-75
2023/01/27 08:31:55;;;;;;;1999.90;999.90;;;3.30;99.90;;;;;;6744266;88;20220;-76
2023/01/27 08:41:56;;;;;;;1999.90;999.90;;;3.50;99.90;;;;;;6743176;88;20652;-74
2023/01/27 08:51:56;;;;;;;1999.90;999.90;;;3.80;99.90;;;;;;6748915;88;20206;-76
2023/01/27 09:01:57;;;;;;;1999.90;999.90;;;4.00;99.90;;;;;;6747570;88;20195;-76
2023/01/27 09:11:57;;;;;;;1999.90;999.90;;;4.00;99.90;;;;;;6745187;88;20184;-76
2023/01/27 09:21:58;;;;;;;1999.90;999.90;;;4.40;99.90;;;;;;6739300;88;20185;-76
2023/01/27 09:31:58;;;;;;;1999.90;999.90;;;4.50;99.90;;;;;;6743839;88;20197;-76
2023/01/27 09:42:20;;;;;;;1999.90;999.90;;;4.60;99.90;;;;;;6742397;88;20223;-75
2023/01/27 09:52:24;;;;;;;1999.90;999.90;;;4.80;99.90;;;;;;6744998;88;21141;-76
2023/01/27 10:02:46;;;;;;;1999.90;999.90;;;4.90;99.90;;;;;;6742173;88;20258;-75
2023/01/27 10:13:07;;;;;;;1999.90;999.90;;;5.10;99.90;;;;;;6741865;88;20181;-73
2023/01/27 10:23:25;;;;;;;1999.90;999.90;;;5.00;99.90;;;;;;6748600;88;20193;-76
2023/01/27 10:33:42;;;;;;;1999.90;999.90;;;5.00;99.90;;;;;;6746248;88;20353;-76
2023/01/27 10:43:48;;;;;;;1999.90;999.90;;;5.10;99.90;;;;;;6742786;88;20262;-75
2023/01/27 10:54:30;;;;;;;1999.90;999.90;;;5.00;99.90;;;;;;6751786;76;20338;-76
2023/01/27 11:04:37;;;;;;;1999.90;999.90;;;5.20;99.90;;;;;;6733531;88;20814;-76
2023/01/27 11:14:47;;;;;;;1999.90;999.90;;;5.50;99.90;;;;;;6739023;88;20307;-78
2023/01/27 11:24:56;;;;;;;1999.90;999.90;;;5.80;99.90;;;;;;6730865;88;20182;-75
2023/01/27 11:35:03;;;;;;;1999.90;999.90;;;5.60;99.90;;;;;;6735339;88;20217;-76
2023/01/27 11:45:04;;;;;;;1999.90;999.90;;;5.50;99.90;;;;;;6727973;88;20204;-77
2023/01/27 11:55:15;;;;;;;1999.90;999.90;;;5.70;99.90;;;;;;6742233;88;20250;-76
2023/01/27 12:05:25;;;;;;;1999.90;999.90;;;5.70;99.90;;;;;;6727992;88;20193;-76
2023/01/27 12:15:28;;;;;;;1999.90;999.90;;;5.80;99.90;;;;;;6727435;88;20193;-75
2023/01/27 12:25:42;;;;;;;1999.90;999.90;;;5.90;99.90;;;;;;6730299;88;20196;-75
2023/01/27 12:35:48;;;;;;;1999.90;999.90;;;6.10;99.90;;;;;;6736348;88;20201;-75
2023/01/27 12:46:16;;;;;;;1999.90;999.90;;;6.30;99.90;;;;;;6735981;88;20181;-75
2023/01/27 12:56:20;;;;;;;1999.90;999.90;;;6.60;99.90;;;;;;6737943;88;20410;-75
2023/01/27 13:06:30;;;;;;;1999.90;999.90;;;7.00;99.90;;;;;;6736999;88;20233;-75
2023/01/27 13:16:30;;;;;;;1999.90;999.90;;;6.80;99.90;;;;;;6735022;88;20196;-76
2023/01/27 13:26:36;;;;;;;1999.90;999.90;;;8.30;99.90;;;;;;6733096;88;20339;-77
2023/01/27 13:36:46;;;;;;;1999.90;999.90;;;10.80;99.90;;;;;;6730136;88;20519;-75
2023/01/27 13:46:48;;;;;;;1999.90;999.90;;;9.60;99.90;;;;;;6727913;88;20693;-75
2023/01/27 13:57:24;;;;;;;1999.90;999.90;;;8.10;99.90;;;;;;6734197;88;20237;-75
2023/01/27 14:07:41;;;;;;;1999.90;999.90;;;7.10;99.90;;;;;;6729904;88;20270;-75
2023/01/27 14:17:54;;;;;;;1999.90;999.90;;;6.90;99.90;;;;;;6731982;88;21090;-76
2023/01/27 14:28:05;;;;;;;1999.90;999.90;;;6.70;99.90;;;;;;6736945;88;20299;-76
2023/01/27 14:38:14;;;;;;;1999.90;999.90;;;6.40;99.90;;;;;;6729755;88;20226;-76
2023/01/27 14:48:39;;;;;;;1999.90;999.90;;;6.10;99.90;;;;;;6737219;88;20336;-76
2023/01/27 14:58:59;;;;;;;1999.90;999.90;;;6.20;99.90;;;;;;6735617;88;20798;-76
2023/01/27 15:09:23;;;;;;;1999.90;999.90;;;6.10;99.90;;;;;;6740663;88;20209;-76
2023/01/27 15:19:49;;;;;;;1999.90;999.90;;;6.00;99.90;;;;;;6732061;88;20206;-76
2023/01/27 15:29:51;;;;;;;1999.90;999.90;;;6.10;99.90;;;;;;6728998;88;20220;-76
2023/01/27 15:40:03;;;;;;;1999.90;999.90;;;6.00;99.90;;;;;;6731863;88;20224;-76
2023/01/27 15:50:24;;;;;;;1999.90;999.90;;;5.80;99.90;;;;;;6731011;88;20654;-76
2023/01/27 16:00:33;;;;;;;1999.90;999.90;;;5.70;99.90;;;;;;6731375;88;20329;-76
2023/01/27 16:10:34;;;;;;;1999.90;999.90;;;5.70;99.90;;;;;;6732298;88;20296;-76
2023/01/27 16:20:41;;;;;;;1999.90;999.90;;;5.60;99.90;;;;;;6731171;88;20745;-77
2023/01/27 16:31:11;;;;;;;1999.90;999.90;;;5.50;99.90;;;;;;6729319;88;20197;-76
2023/01/27 16:41:28;;;;;;;1999.90;999.90;;;5.40;99.90;;;;;;6731551;88;20623;-76
2023/01/27 16:51:29;;;;;;;1999.90;999.90;;;5.40;99.90;;;;;;6729546;78;20244;-75
2023/01/27 17:01:47;;;;;;;1999.90;999.90;;;5.20;99.90;;;;;;6722473;88;20293;-74
2023/01/27 17:11:48;;;;;;;1999.90;999.90;;;5.10;99.90;;;;;;6727878;88;20248;-75
2023/01/27 17:21:53;;;;;;;1999.90;999.90;;;5.10;99.90;;;;;;6729786;88;20307;-74
2023/01/27 17:31:53;;;;;;;1999.90;999.90;;;5.00;99.90;;;;;;6730570;88;20227;-75
2023/01/27 17:41:54;;;;;;;1999.90;999.90;;;5.00;99.90;;;;;;6734494;88;20369;-74
2023/01/27 17:51:56;;;;;;;1999.90;999.90;;;4.90;99.90;;;;;;6734268;88;20718;-74
2023/01/27 18:02:03;;;;;;;1999.90;999.90;;;4.70;99.90;;;;;;6739237;88;20189;-76
2023/01/27 18:12:06;;;;;;;1999.90;999.90;;;4.70;99.90;;;;;;6739639;88;20644;-76
2023/01/27 18:22:15;;;;;;;1999.90;999.90;;;4.60;99.90;;;;;;6738457;88;20237;-76
2023/01/27 18:32:23;;;;;;;1999.90;999.90;;;4.60;99.90;;;;;;6743228;88;20216;-76
2023/01/27 18:42:26;;;;;;;1999.90;999.90;;;4.50;99.90;;;;;;6739336;88;20692;-76
2023/01/27 18:52:28;;;;;;;1999.90;999.90;;;4.40;99.90;;;;;;6732632;88;20605;-78
2023/01/27 19:02:28;;;;;;;1999.90;999.90;;;4.50;99.90;;;;;;6734844;88;20209;-76
2023/01/27 19:12:29;;;;;;;1999.90;999.90;;;4.50;99.90;;;;;;6733681;88;20209;-77
2023/01/27 19:22:30;;;;;;;1999.90;999.90;;;4.30;99.90;;;;;;6730883;88;20567;-76
2023/01/27 19:32:31;;;;;;;1999.90;999.90;;;4.40;99.90;;;;;;6729815;88;20831;-76
2023/01/27 19:42:32;;;;;;;1999.90;999.90;;;4.30;99.90;;;;;;6721122;88;20215;-76
2023/01/27 19:52:33;;;;;;;1999.90;999.90;;;4.30;99.90;;;;;;6720390;88;20210;-75
2023/01/27 20:02:33;;;;;;;1999.90;999.90;;;4.30;99.90;;;;;;6725203;88;20204;-76
2023/01/27 20:12:34;;;;;;;1999.90;999.90;;;4.20;99.90;;;;;;6726650;88;20321;-75
2023/01/27 20:22:35;;;;;;;1999.90;999.90;;;4.10;99.90;;;;;;6748727;88;20961;-77
2023/01/27 20:32:36;;;;;;;1999.90;999.90;;;4.20;99.90;;;;;;6734023;88;20237;-75
2023/01/27 20:42:36;;;;;;;1999.90;999.90;;;4.10;99.90;;;;;;6730427;88;20177;-74
2023/01/27 20:52:37;;;;;;;1999.90;999.90;;;4.00;99.90;;;;;;6730649;88;20225;-76
2023/01/27 21:02:38;;;;;;;1999.90;999.90;;;3.90;99.90;;;;;;6738627;88;20177;-76
2023/01/27 21:12:38;;;;;;;1999.90;999.90;;;3.80;99.90;;;;;;6735620;88;20174;-76
2023/01/27 21:22:39;;;;;;;1999.90;999.90;;;3.80;99.90;;;;;;6731243;88;20208;-75
2023/01/27 21:32:39;;;;;;;1999.90;999.90;;;3.90;99.90;;;;;;6730860;88;20182;-75
2023/01/27 21:52:59;;;;;;;1999.90;999.90;;;3.80;99.90;;;;;;6727735;88;20189;-76
2023/01/27 22:03:02;;;;;;;1999.90;999.90;;;3.80;99.90;;;;;;6729290;88;20686;-77
2023/01/27 22:13:03;;;;;;;1999.90;999.90;;;3.80;99.90;;;;;;6728026;88;20224;-77
2023/01/27 22:23:03;;;;;;;1999.90;999.90;;;3.80;99.90;;;;;;6737504;88;20319;-77
2023/01/27 22:33:04;;;;;;;1999.90;999.90;;;3.90;99.90;;;;;;6736057;88;20216;-76
2023/01/27 22:43:08;;;;;;;1999.90;999.90;;;3.80;99.90;;;;;;6735767;88;20983;-77
2023/01/27 22:53:09;;;;;;;1999.90;999.90;;;3.80;99.90;;;;;;6729829;88;20188;-77
2023/01/27 23:03:10;;;;;;;1999.90;999.90;;;3.80;99.90;;;;;;6737443;88;20239;-78
2023/01/27 23:13:10;;;;;;;1999.90;999.90;;;3.80;99.90;;;;;;6734976;88;20228;-76
2023/01/27 23:23:11;;;;;;;1999.90;999.90;;;3.90;99.90;;;;;;6733002;88;20233;-76
2023/01/27 23:33:13;;;;;;;1999.90;999.90;;;3.80;99.90;;;;;;6736621;88;20316;-76
2023/01/27 23:43:13;;;;;;;1999.90;999.90;;;3.70;99.90;;;;;;6729193;88;20218;-76
2023/01/27 23:53:14;;;;;;;1999.90;999.90;;;3.80;99.90;;;;;;6731680;88;20176;-77
